sensor_id;sensor_type;location;lat;lon;timestamp;temperature;humidity
43949;DHT22;29429;51.074;13.764;2023-03-01T00:01:39;-3.10;99.90
43949;DHT22;29429;51.074;13.764;2023-03-01T00:04:07;-3.10;99.90
43949;DHT22;29429;51.074;13.764;2023-03-01T00:06:34;-3.10;99.90
43949;DHT22;29429;51.074;13.764;2023-03-01T00:09:01;-3.20;99.90
43949;DHT22;29429;51.074;13.764;2023-03-01T00:11:30;-3.20;99.90
43949;DHT22;29429;51.074;13.764;2023-03-01T00:13:59;-3.20;99.90
43949;DHT22;29429;51.074;13.764;2023-03-01T00:16:30;-3.20;99.90
43949;DHT22;29429;51.074;13.764;2023-03-01T00:19:00;-3.20;99.90
43949;DHT22;29429;51.074;13.764;2023-03-01T00:21:27;-3.20;99.90
43949;DHT22;29429;51.074;13.764;2023-03-01T00:23:54;-3.30;99.90
43949;DHT22;29429;51.074;13.764;2023-03-01T00:26:23;-3.30;99.90
43949;DHT22;29429;51.074;13.764;2023-03-01T00:28:52;-3.30;99.90
43949;DHT22;29429;51.074;13.764;2023-03-01T00:31:23;-3.30;99.90
43949;DHT22;29429;51.074;13.764;2023-03-01T00:33:53;-3.40;99.90
43949;DHT22;29429;51.074;13.764;2023-03-01T00:36:26;-3.40;99.90
43949;DHT22;29429;51.074;13.764;2023-03-01T00:38:56;-3.40;99.90
43949;DHT22;29429;51.074;13.764;2023-03-01T00:41:25;-3.40;99.90
43949;DHT22;29429;51.074;13.764;2023-03-01T00:43:54;-3.40;99.90
43949;DHT22;29429;51.074;13.764;2023-03-01T00:46:25;-3.40;99.90
43949;DHT22;29429;51.074;13.764;2023-03-01T00:48:53;-3.50;99.90
43949;DHT22;29429;51.074;13.764;2023-03-01T00:51:24;-3.50;99.90
43949;DHT22;29429;51.074;13.764;2023-03-01T00:53:55;-3.50;99.90
43949;DHT22;29429;51.074;13.764;2023-03-01T00:56:25;-3.60;99.90
43949;DHT22;29429;51.074;13.764;2023-03-01T00:58:53;-3.60;99.90
43949;DHT22;29429;51.074;13.764;2023-03-01T01:01:22;-3.60;99.90
43949;DHT22;29429;51.074;13.764;2023-03-01T01:04:10;-3.70;99.90
43949;DHT22;29429;51.074;13.764;2023-03-01T01:06:43;-3.70;99.90
43949;DHT22;29429;51.074;13.764;2023-03-01T01:09:17;-3.70;99.90
43949;DHT22;29429;51.074;13.764;2023-03-01T01:11:49;-3.80;99.90
43949;DHT22;29429;51.074;13.764;2023-03-01T01:14:19;-3.80;99.90
43949;DHT22;29429;51.074;13.764;2023-03-01T01:16:48;-3.80;99.90
43949;DHT22;29429;51.074;13.764;2023-03-01T01:19:16;-3.80;99.90
43949;DHT22;29429;51.074;13.764;2023-03-01T01:21:43;-3.80;99.90
43949;DHT22;29429;51.074;13.764;2023-03-01T01:24:11;-3.80;99.90
43949;DHT22;29429;51.074;13.764;2023-03-01T01:26:38;-3.80;99.90
43949;DHT22;29429;51.074;13.764;2023-03-01T01:29:06;-3.80;99.90
43949;DHT22;29429;51.074;13.764;2023-03-01T01:31:35;-3.80;99.90
43949;DHT22;29429;51.074;13.764;2023-03-01T01:34:05;-3.80;99.90
43949;DHT22;29429;51.074;13.764;2023-03-01T01:36:33;-3.80;99.90
43949;DHT22;29429;51.074;13.764;2023-03-01T01:39:01;-3.80;99.90
43949;DHT22;29429;51.074;13.764;2023-03-01T01:41:28;-3.80;99.90
43949;DHT22;29429;51.074;13.764;2023-03-01T01:44:16;-3.80;99.90
43949;DHT22;29429;51.074;13.764;2023-03-01T01:46:58;-3.90;99.90
43949;DHT22;29429;51.074;13.764;2023-03-01T01:52:27;-3.90;99.90
43949;DHT22;29429;51.074;13.764;2023-03-01T01:55:07;-3.90;99.90
43949;DHT22;29429;51.074;13.764;2023-03-01T01:57:41;-4.00;99.90
43949;DHT22;29429;51.074;13.764;2023-03-01T02:00:17;-4.00;99.90
43949;DHT22;29429;51.074;13.764;2023-03-01T02:02:49;-4.00;99.90
43949;DHT22;29429;51.074;13.764;2023-03-01T02:08:23;-4.10;99.90
43949;DHT22;29429;51.074;13.764;2023-03-01T02:10:55;-4.10;99.90
43949;DHT22;29429;51.074;13.764;2023-03-01T02:13:23;-4.10;99.90
43949;DHT22;29429;51.074;13.764;2023-03-01T02:15:50;-4.10;99.90
43949;DHT22;29429;51.074;13.764;2023-03-01T02:18:18;-4.10;99.90
43949;DHT22;29429;51.074;13.764;2023-03-01T02:23:54;-4.10;99.90
43949;DHT22;29429;51.074;13.764;2023-03-01T02:29:01;-4.10;99.90
43949;DHT22;29429;51.074;13.764;2023-03-01T02:31:28;-4.20;99.90
43949;DHT22;29429;51.074;13.764;2023-03-01T02:34:14;-4.20;99.90
43949;DHT22;29429;51.074;13.764;2023-03-01T02:36:52;-4.20;99.90
43949;DHT22;29429;51.074;13.764;2023-03-01T02:39:33;-4.30;99.90
43949;DHT22;29429;51.074;13.764;2023-03-01T02:42:10;-4.30;99.90
43949;DHT22;29429;51.074;13.764;2023-03-01T02:44:41;-4.30;99.90
43949;DHT22;29429;51.074;13.764;2023-03-01T02:47:08;-4.30;99.90
43949;DHT22;29429;51.074;13.764;2023-03-01T02:49:36;-4.30;99.90
43949;DHT22;29429;51.074;13.764;2023-03-01T02:55:14;-4.40;99.90
43949;DHT22;29429;51.074;13.764;2023-03-01T02:57:45;-4.40;99.90
43949;DHT22;29429;51.074;13.764;2023-03-01T03:00:30;-4.40;99.90
43949;DHT22;29429;51.074;13.764;2023-03-01T03:03:03;-4.40;99.90
43949;DHT22;29429;51.074;13.764;2023-03-01T03:05:32;-4.40;99.90
43949;DHT22;29429;51.074;13.764;2023-03-01T03:08:02;-4.40;99.90
43949;DHT22;29429;51.074;13.764;2023-03-01T03:10:37;-4.50;99.90
43949;DHT22;29429;51.074;13.764;2023-03-01T03:13:09;-4.50;99.90
43949;DHT22;29429;51.074;13.764;2023-03-01T03:15:39;-4.50;99.90
43949;DHT22;29429;51.074;13.764;2023-03-01T03:18:10;-4.60;99.90
43949;DHT22;29429;51.074;13.764;2023-03-01T03:20:40;-4.60;99.90
43949;DHT22;29429;51.074;13.764;2023-03-01T03:23:08;-4.60;99.90
43949;DHT22;29429;51.074;13.764;2023-03-01T03:25:35;-4.70;99.90
43949;DHT22;29429;51.074;13.764;2023-03-01T03:28:05;-4.70;99.90
43949;DHT22;29429;51.074;13.764;2023-03-01T03:30:39;-4.70;99.90
43949;DHT22;29429;51.074;13.764;2023-03-01T03:33:08;-4.70;99.90
43949;DHT22;29429;51.074;13.764;2023-03-01T03:35:49;-4.80;99.90
43949;DHT22;29429;51.074;13.764;2023-03-01T03:38:19;-4.80;99.90
43949;DHT22;29429;51.074;13.764;2023-03-01T03:41:00;-4.80;99.90
43949;DHT22;29429;51.074;13.764;2023-03-01T03:43:32;-4.80;99.90
43949;DHT22;29429;51.074;13.764;2023-03-01T03:46:01;-4.80;99.90
43949;DHT22;29429;51.074;13.764;2023-03-01T03:48:38;-4.80;99.90
43949;DHT22;29429;51.074;13.764;2023-03-01T03:51:09;-4.80;99.90
43949;DHT22;29429;51.074;13.764;2023-03-01T03:53:38;-4.80;99.90
43949;DHT22;29429;51.074;13.764;2023-03-01T03:56:05;-4.80;99.90
43949;DHT22;29429;51.074;13.764;2023-03-01T03:58:33;-4.80;99.90
43949;DHT22;29429;51.074;13.764;2023-03-01T04:01:00;-4.80;99.90
43949;DHT22;29429;51.074;13.764;2023-03-01T04:03:29;-4.80;99.90
43949;DHT22;29429;51.074;13.764;2023-03-01T04:05:58;-4.90;99.90
43949;DHT22;29429;51.074;13.764;2023-03-01T04:08:26;-4.90;99.90
43949;DHT22;29429;51.074;13.764;2023-03-01T04:10:59;-4.90;99.90
43949;DHT22;29429;51.074;13.764;2023-03-01T04:13:47;-5.00;99.90
43949;DHT22;29429;51.074;13.764;2023-03-01T04:16:15;-5.00;99.90
43949;DHT22;29429;51.074;13.764;2023-03-01T04:18:43;-5.00;99.90
43949;DHT22;29429;51.074;13.764;2023-03-01T04:21:11;-5.00;99.90
43949;DHT22;29429;51.074;13.764;2023-03-01T04:23:38;-5.00;99.90
43949;DHT22;29429;51.074;13.764;2023-03-01T04:26:07;-4.90;99.90
43949;DHT22;29429;51.074;13.764;2023-03-01T04:28:38;-4.90;99.90
43949;DHT22;29429;51.074;13.764;2023-03-01T04:31:18;-5.00;99.90
43949;DHT22;29429;51.074;13.764;2023-03-01T04:33:52;-5.00;99.90
43949;DHT22;29429;51.074;13.764;2023-03-01T04:36:26;-5.00;99.90
43949;DHT22;29429;51.074;13.764;2023-03-01T04:38:55;-5.00;99.90
43949;DHT22;29429;51.074;13.764;2023-03-01T04:41:24;-5.00;99.90
43949;DHT22;29429;51.074;13.764;2023-03-01T04:43:52;-5.00;99.90
43949;DHT22;29429;51.074;13.764;2023-03-01T04:46:20;-5.00;99.90
43949;DHT22;29429;51.074;13.764;2023-03-01T04:48:48;-5.10;99.90
43949;DHT22;29429;51.074;13.764;2023-03-01T04:51:15;-5.00;99.90
43949;DHT22;29429;51.074;13.764;2023-03-01T04:53:43;-5.00;99.90
43949;DHT22;29429;51.074;13.764;2023-03-01T04:56:11;-5.00;99.90
43949;DHT22;29429;51.074;13.764;2023-03-01T04:58:40;-5.00;99.90
43949;DHT22;29429;51.074;13.764;2023-03-01T05:01:13;-5.00;99.90
43949;DHT22;29429;51.074;13.764;2023-03-01T05:03:50;-5.00;99.90
43949;DHT22;29429;51.074;13.764;2023-03-01T05:06:19;-5.00;99.90
43949;DHT22;29429;51.074;13.764;2023-03-01T05:08:46;-5.00;99.90
43949;DHT22;29429;51.074;13.764;2023-03-01T05:11:13;-5.10;99.90
43949;DHT22;29429;51.074;13.764;2023-03-01T05:13:41;-5.10;99.90
43949;DHT22;29429;51.074;13.764;2023-03-01T05:16:08;-5.20;99.90
43949;DHT22;29429;51.074;13.764;2023-03-01T05:18:40;-5.20;99.90
43949;DHT22;29429;51.074;13.764;2023-03-01T05:21:10;-5.20;99.90
43949;DHT22;29429;51.074;13.764;2023-03-01T05:23:39;-5.20;99.90
43949;DHT22;29429;51.074;13.764;2023-03-01T05:26:07;-5.30;99.90
43949;DHT22;29429;51.074;13.764;2023-03-01T05:28:52;-5.30;99.90
43949;DHT22;29429;51.074;13.764;2023-03-01T05:31:26;-5.30;99.90
43949;DHT22;29429;51.074;13.764;2023-03-01T05:33:53;-5.30;99.90
43949;DHT22;29429;51.074;13.764;2023-03-01T05:36:20;-5.20;99.90
43949;DHT22;29429;51.074;13.764;2023-03-01T05:38:47;-5.20;99.90
43949;DHT22;29429;51.074;13.764;2023-03-01T05:41:15;-5.20;99.90
43949;DHT22;29429;51.074;13.764;2023-03-01T05:43:43;-5.20;99.90
43949;DHT22;29429;51.074;13.764;2023-03-01T05:46:12;-5.20;99.90
43949;DHT22;29429;51.074;13.764;2023-03-01T05:48:40;-5.20;99.90
43949;DHT22;29429;51.074;13.764;2023-03-01T05:51:07;-5.20;99.90
43949;DHT22;29429;51.074;13.764;2023-03-01T05:53:34;-5.20;99.90
43949;DHT22;29429;51.074;13.764;2023-03-01T05:56:04;-5.20;99.90
43949;DHT22;29429;51.074;13.764;2023-03-01T05:58:31;-5.20;99.90
43949;DHT22;29429;51.074;13.764;2023-03-01T06:00:58;-5.20;99.90
43949;DHT22;29429;51.074;13.764;2023-03-01T06:03:25;-5.20;99.90
43949;DHT22;29429;51.074;13.764;2023-03-01T06:06:01;-5.20;99.90
43949;DHT22;29429;51.074;13.764;2023-03-01T06:08:32;-5.20;99.90
43949;DHT22;29429;51.074;13.764;2023-03-01T06:10:59;-5.20;99.90
43949;DHT22;29429;51.074;13.764;2023-03-01T06:13:26;-5.10;99.90
43949;DHT22;29429;51.074;13.764;2023-03-01T06:15:53;-5.10;99.90
43949;DHT22;29429;51.074;13.764;2023-03-01T06:18:21;-5.00;99.90
43949;DHT22;29429;51.074;13.764;2023-03-01T06:20:55;-5.00;99.90
43949;DHT22;29429;51.074;13.764;2023-03-01T06:23:22;-5.00;99.90
43949;DHT22;29429;51.074;13.764;2023-03-01T06:25:50;-5.00;99.90
43949;DHT22;29429;51.074;13.764;2023-03-01T06:28:18;-4.90;99.90
43949;DHT22;29429;51.074;13.764;2023-03-01T06:30:45;-4.90;99.90
43949;DHT22;29429;51.074;13.764;2023-03-01T06:33:12;-4.80;99.90
43949;DHT22;29429;51.074;13.764;2023-03-01T06:35:39;-4.80;99.90
43949;DHT22;29429;51.074;13.764;2023-03-01T06:38:06;-4.70;99.90
43949;DHT22;29429;51.074;13.764;2023-03-01T06:40:34;-4.60;99.90
43949;DHT22;29429;51.074;13.764;2023-03-01T06:43:01;-4.60;99.90
43949;DHT22;29429;51.074;13.764;2023-03-01T06:45:28;-4.50;99.90
43949;DHT22;29429;51.074;13.764;2023-03-01T06:48:06;-4.40;99.90
43949;DHT22;29429;51.074;13.764;2023-03-01T06:50:35;-4.30;99.90
43949;DHT22;29429;51.074;13.764;2023-03-01T06:53:08;-4.30;99.90
43949;DHT22;29429;51.074;13.764;2023-03-01T07:00:21;-3.20;99.90
43949;DHT22;29429;51.074;13.764;2023-03-01T07:02:49;-4.00;99.90
43949;DHT22;29429;51.074;13.764;2023-03-01T07:05:17;-3.90;99.90
43949;DHT22;29429;51.074;13.764;2023-03-01T07:07:44;-3.80;99.90
43949;DHT22;29429;51.074;13.764;2023-03-01T07:10:17;-3.80;99.90
43949;DHT22;29429;51.074;13.764;2023-03-01T07:12:44;-3.90;99.90
43949;DHT22;29429;51.074;13.764;2023-03-01T07:15:15;-3.60;99.90
43949;DHT22;29429;51.074;13.764;2023-03-01T07:17:53;-3.50;99.90
43949;DHT22;29429;51.074;13.764;2023-03-01T07:20:20;-3.40;99.90
43949;DHT22;29429;51.074;13.764;2023-03-01T07:22:53;-3.30;99.90
43949;DHT22;29429;51.074;13.764;2023-03-01T07:25:21;-3.20;99.90
43949;DHT22;29429;51.074;13.764;2023-03-01T07:27:50;-3.20;99.90
43949;DHT22;29429;51.074;13.764;2023-03-01T07:30:20;-3.10;99.90
43949;DHT22;29429;51.074;13.764;2023-03-01T07:32:47;-3.00;99.90
43949;DHT22;29429;51.074;13.764;2023-03-01T07:35:15;-3.00;99.90
43949;DHT22;29429;51.074;13.764;2023-03-01T07:37:45;-2.90;99.90
43949;DHT22;29429;51.074;13.764;2023-03-01T07:40:12;-2.80;99.90
43949;DHT22;29429;51.074;13.764;2023-03-01T07:42:40;-2.80;99.90
43949;DHT22;29429;51.074;13.764;2023-03-01T07:45:07;-2.70;99.90
43949;DHT22;29429;51.074;13.764;2023-03-01T07:47:34;-2.60;99.90
43949;DHT22;29429;51.074;13.764;2023-03-01T07:50:02;-2.50;99.90
43949;DHT22;29429;51.074;13.764;2023-03-01T07:52:41;-2.50;99.90
43949;DHT22;29429;51.074;13.764;2023-03-01T07:55:09;-2.40;99.90
43949;DHT22;29429;51.074;13.764;2023-03-01T07:57:38;-2.40;99.90
43949;DHT22;29429;51.074;13.764;2023-03-01T08:00:14;-2.30;99.90
43949;DHT22;29429;51.074;13.764;2023-03-01T08:02:51;-2.30;99.90
43949;DHT22;29429;51.074;13.764;2023-03-01T08:05:19;-2.20;99.90
43949;DHT22;29429;51.074;13.764;2023-03-01T08:07:46;-2.20;99.90
43949;DHT22;29429;51.074;13.764;2023-03-01T08:10:13;-2.10;99.90
43949;DHT22;29429;51.074;13.764;2023-03-01T08:12:40;-2.00;99.90
43949;DHT22;29429;51.074;13.764;2023-03-01T08:15:07;-1.90;99.90
43949;DHT22;29429;51.074;13.764;2023-03-01T08:17:35;-1.90;99.90
43949;DHT22;29429;51.074;13.764;2023-03-01T08:20:02;-1.80;99.90
43949;DHT22;29429;51.074;13.764;2023-03-01T08:22:32;-1.80;99.90
43949;DHT22;29429;51.074;13.764;2023-03-01T08:24:59;-1.80;99.90
43949;DHT22;29429;51.074;13.764;2023-03-01T08:27:26;-1.70;99.90
43949;DHT22;29429;51.074;13.764;2023-03-01T08:29:54;-1.70;99.90
43949;DHT22;29429;51.074;13.764;2023-03-01T08:32:54;-1.60;99.90
43949;DHT22;29429;51.074;13.764;2023-03-01T08:35:22;-1.50;99.90
43949;DHT22;29429;51.074;13.764;2023-03-01T08:37:49;-1.40;99.90
43949;DHT22;29429;51.074;13.764;2023-03-01T08:40:16;-1.40;99.90
43949;DHT22;29429;51.074;13.764;2023-03-01T08:42:43;-1.30;99.90
43949;DHT22;29429;51.074;13.764;2023-03-01T08:45:11;-1.20;99.90
43949;DHT22;29429;51.074;13.764;2023-03-01T08:47:50;-1.20;99.90
43949;DHT22;29429;51.074;13.764;2023-03-01T08:50:21;-1.10;99.90
43949;DHT22;29429;51.074;13.764;2023-03-01T08:55:46;-0.90;99.90
43949;DHT22;29429;51.074;13.764;2023-03-01T08:58:16;-0.90;99.90
43949;DHT22;29429;51.074;13.764;2023-03-01T09:00:43;-0.80;99.90
43949;DHT22;29429;51.074;13.764;2023-03-01T09:03:10;-0.80;99.90
43949;DHT22;29429;51.074;13.764;2023-03-01T09:05:37;-0.70;99.90
43949;DHT22;29429;51.074;13.764;2023-03-01T09:08:04;-0.60;99.90
43949;DHT22;29429;51.074;13.764;2023-03-01T09:10:37;-0.50;99.90
43949;DHT22;29429;51.074;13.764;2023-03-01T09:13:12;-0.50;99.90
43949;DHT22;29429;51.074;13.764;2023-03-01T09:16:04;-0.30;99.90
43949;DHT22;29429;51.074;13.764;2023-03-01T09:18:32;-0.30;99.90
43949;DHT22;29429;51.074;13.764;2023-03-01T09:21:05;-0.20;99.90
43949;DHT22;29429;51.074;13.764;2023-03-01T09:23:39;-0.10;99.90
43949;DHT22;29429;51.074;13.764;2023-03-01T09:26:17;-0.10;99.90
43949;DHT22;29429;51.074;13.764;2023-03-01T09:44:44;0.50;99.90
43949;DHT22;29429;51.074;13.764;2023-03-01T09:47:19;0.60;99.90
43949;DHT22;29429;51.074;13.764;2023-03-01T09:53:01;0.70;99.90
43949;DHT22;29429;51.074;13.764;2023-03-01T09:55:52;0.80;99.90
43949;DHT22;29429;51.074;13.764;2023-03-01T09:58:56;1.00;99.90
43949;DHT22;29429;51.074;13.764;2023-03-01T10:01:38;1.10;99.90
43949;DHT22;29429;51.074;13.764;2023-03-01T10:07:39;1.20;99.90
43949;DHT22;29429;51.074;13.764;2023-03-01T10:10:22;1.40;99.90
43949;DHT22;29429;51.074;13.764;2023-03-01T10:12:56;1.40;99.90
43949;DHT22;29429;51.074;13.764;2023-03-01T10:15:42;1.50;99.90
43949;DHT22;29429;51.074;13.764;2023-03-01T10:18:17;1.60;99.90
43949;DHT22;29429;51.074;13.764;2023-03-01T10:23:23;1.80;99.90
43949;DHT22;29429;51.074;13.764;2023-03-01T10:28:44;2.00;99.90
43949;DHT22;29429;51.074;13.764;2023-03-01T10:31:27;2.10;99.90
43949;DHT22;29429;51.074;13.764;2023-03-01T10:34:25;2.30;99.90
43949;DHT22;29429;51.074;13.764;2023-03-01T10:37:14;2.30;99.90
43949;DHT22;29429;51.074;13.764;2023-03-01T10:40:08;2.30;99.90
43949;DHT22;29429;51.074;13.764;2023-03-01T10:42:46;2.40;99.90
43949;DHT22;29429;51.074;13.764;2023-03-01T10:48:14;2.60;99.90
43949;DHT22;29429;51.074;13.764;2023-03-01T10:50:50;2.70;99.90
43949;DHT22;29429;51.074;13.764;2023-03-01T10:53:42;2.80;99.90
43949;DHT22;29429;51.074;13.764;2023-03-01T10:56:15;2.90;99.90
43949;DHT22;29429;51.074;13.764;2023-03-01T11:01:37;3.00;99.90
43949;DHT22;29429;51.074;13.764;2023-03-01T11:04:10;3.10;99.90
43949;DHT22;29429;51.074;13.764;2023-03-01T11:06:44;3.20;99.90
43949;DHT22;29429;51.074;13.764;2023-03-01T11:09:25;3.30;99.90
43949;DHT22;29429;51.074;13.764;2023-03-01T11:11:55;3.40;99.90
43949;DHT22;29429;51.074;13.764;2023-03-01T11:14:35;3.50;99.90
43949;DHT22;29429;51.074;13.764;2023-03-01T11:17:18;3.50;99.90
43949;DHT22;29429;51.074;13.764;2023-03-01T11:20:32;3.60;99.90
43949;DHT22;29429;51.074;13.764;2023-03-01T11:23:12;4.20;99.90
43949;DHT22;29429;51.074;13.764;2023-03-01T11:25:49;3.70;99.90
43949;DHT22;29429;51.074;13.764;2023-03-01T11:28:23;3.80;99.90
43949;DHT22;29429;51.074;13.764;2023-03-01T11:31:03;3.90;99.90
43949;DHT22;29429;51.074;13.764;2023-03-01T11:33:56;3.90;99.90
43949;DHT22;29429;51.074;13.764;2023-03-01T11:36:41;4.00;99.90
43949;DHT22;29429;51.074;13.764;2023-03-01T11:42:19;4.10;99.90
43949;DHT22;29429;51.074;13.764;2023-03-01T11:44:54;4.20;99.90
43949;DHT22;29429;51.074;13.764;2023-03-01T11:50:28;4.30;99.90
43949;DHT22;29429;51.074;13.764;2023-03-01T11:56:33;4.40;99.90
43949;DHT22;29429;51.074;13.764;2023-03-01T11:59:30;4.50;99.70
43949;DHT22;29429;51.074;13.764;2023-03-01T12:02:32;4.60;98.70
43949;DHT22;29429;51.074;13.764;2023-03-01T12:37:25;4.80;99.90
43949;DHT22;29429;51.074;13.764;2023-03-01T12:49:33;4.90;99.90
43949;DHT22;29429;51.074;13.764;2023-03-01T12:55:08;4.90;99.90
43949;DHT22;29429;51.074;13.764;2023-03-01T12:58:09;4.90;99.90
43949;DHT22;29429;51.074;13.764;2023-03-01T13:01:36;4.90;99.90
43949;DHT22;29429;51.074;13.764;2023-03-01T13:04:24;4.90;99.90
43949;DHT22;29429;51.074;13.764;2023-03-01T13:07:24;4.90;99.90
43949;DHT22;29429;51.074;13.764;2023-03-01T13:17:59;4.90;99.90
43949;DHT22;29429;51.074;13.764;2023-03-01T13:20:49;4.90;99.90
43949;DHT22;29429;51.074;13.764;2023-03-01T13:33:59;5.20;99.90
43949;DHT22;29429;51.074;13.764;2023-03-01T13:39:00;5.00;99.90
43949;DHT22;29429;51.074;13.764;2023-03-01T13:44:35;5.10;99.90
43949;DHT22;29429;51.074;13.764;2023-03-01T13:49:56;5.10;99.90
43949;DHT22;29429;51.074;13.764;2023-03-01T13:52:39;5.20;99.90
43949;DHT22;29429;51.074;13.764;2023-03-01T13:55:15;5.20;99.90
43949;DHT22;29429;51.074;13.764;2023-03-01T13:57:48;5.20;99.90
43949;DHT22;29429;51.074;13.764;2023-03-01T14:00:35;5.20;99.90
43949;DHT22;29429;51.074;13.764;2023-03-01T14:03:19;5.20;99.90
43949;DHT22;29429;51.074;13.764;2023-03-01T14:06:03;5.10;99.90
43949;DHT22;29429;51.074;13.764;2023-03-01T14:09:22;5.20;98.90
43949;DHT22;29429;51.074;13.764;2023-03-01T14:15:37;5.20;96.90
43949;DHT22;29429;51.074;13.764;2023-03-01T14:18:29;5.30;97.20
43949;DHT22;29429;51.074;13.764;2023-03-01T14:21:09;5.20;98.70
43949;DHT22;29429;51.074;13.764;2023-03-01T14:23:38;5.30;98.40
43949;DHT22;29429;51.074;13.764;2023-03-01T14:26:08;5.30;97.90
43949;DHT22;29429;51.074;13.764;2023-03-01T14:28:39;5.30;97.80
43949;DHT22;29429;51.074;13.764;2023-03-01T14:31:37;5.30;97.90
43949;DHT22;29429;51.074;13.764;2023-03-01T14:34:23;5.30;98.50
43949;DHT22;29429;51.074;13.764;2023-03-01T14:36:51;5.30;99.20
43949;DHT22;29429;51.074;13.764;2023-03-01T14:39:25;5.30;99.90
43949;DHT22;29429;51.074;13.764;2023-03-01T14:41:53;5.30;99.90
43949;DHT22;29429;51.074;13.764;2023-03-01T14:44:22;5.20;99.80
43949;DHT22;29429;51.074;13.764;2023-03-01T14:46:55;5.30;99.90
43949;DHT22;29429;51.074;13.764;2023-03-01T14:49:29;5.30;99.90
43949;DHT22;29429;51.074;13.764;2023-03-01T14:52:21;5.30;99.90
43949;DHT22;29429;51.074;13.764;2023-03-01T14:54:57;5.30;99.90
43949;DHT22;29429;51.074;13.764;2023-03-01T14:57:26;5.20;99.90
43949;DHT22;29429;51.074;13.764;2023-03-01T14:59:57;5.20;99.90
43949;DHT22;29429;51.074;13.764;2023-03-01T15:02:28;5.20;99.90
43949;DHT22;29429;51.074;13.764;2023-03-01T15:04:59;5.10;99.90
43949;DHT22;29429;51.074;13.764;2023-03-01T15:07:38;5.10;99.90
43949;DHT22;29429;51.074;13.764;2023-03-01T15:10:25;4.90;99.90
43949;DHT22;29429;51.074;13.764;2023-03-01T15:12:53;5.10;99.90
43949;DHT22;29429;51.074;13.764;2023-03-01T15:17:58;5.00;99.90
43949;DHT22;29429;51.074;13.764;2023-03-01T15:20:28;5.00;99.90
43949;DHT22;29429;51.074;13.764;2023-03-01T15:22:57;5.00;99.90
43949;DHT22;29429;51.074;13.764;2023-03-01T15:25:27;5.00;99.90
43949;DHT22;29429;51.074;13.764;2023-03-01T15:27:57;4.90;99.90
43949;DHT22;29429;51.074;13.764;2023-03-01T15:30:33;4.90;99.90
43949;DHT22;29429;51.074;13.764;2023-03-01T15:33:31;4.80;99.90
43949;DHT22;29429;51.074;13.764;2023-03-01T15:36:02;4.80;99.90
43949;DHT22;29429;51.074;13.764;2023-03-01T15:38:36;4.80;99.90
43949;DHT22;29429;51.074;13.764;2023-03-01T15:41:38;4.70;99.90
43949;DHT22;29429;51.074;13.764;2023-03-01T15:44:27;4.70;99.90
43949;DHT22;29429;51.074;13.764;2023-03-01T15:47:26;4.70;99.90
43949;DHT22;29429;51.074;13.764;2023-03-01T15:49:57;4.50;99.90
43949;DHT22;29429;51.074;13.764;2023-03-01T15:52:35;4.40;99.90
43949;DHT22;29429;51.074;13.764;2023-03-01T15:55:16;4.40;99.90
43949;DHT22;29429;51.074;13.764;2023-03-01T15:57:46;4.40;99.90
43949;DHT22;29429;51.074;13.764;2023-03-01T16:00:16;4.30;99.90
43949;DHT22;29429;51.074;13.764;2023-03-01T16:02:44;4.30;99.90
43949;DHT22;29429;51.074;13.764;2023-03-01T16:05:36;4.20;99.90
43949;DHT22;29429;51.074;13.764;2023-03-01T16:08:04;4.30;99.90
43949;DHT22;29429;51.074;13.764;2023-03-01T16:10:33;4.20;99.90
43949;DHT22;29429;51.074;13.764;2023-03-01T16:13:01;4.20;99.90
43949;DHT22;29429;51.074;13.764;2023-03-01T16:15:30;4.20;99.90
43949;DHT22;29429;51.074;13.764;2023-03-01T16:18:01;4.10;99.90
43949;DHT22;29429;51.074;13.764;2023-03-01T16:20:29;4.10;99.90
43949;DHT22;29429;51.074;13.764;2023-03-01T16:23:04;4.00;99.90
43949;DHT22;29429;51.074;13.764;2023-03-01T16:25:34;3.90;99.90
43949;DHT22;29429;51.074;13.764;2023-03-01T16:28:02;3.90;99.90
43949;DHT22;29429;51.074;13.764;2023-03-01T16:30:36;3.80;99.90
43949;DHT22;29429;51.074;13.764;2023-03-01T16:33:06;3.70;99.90
43949;DHT22;29429;51.074;13.764;2023-03-01T16:35:55;3.60;99.90
43949;DHT22;29429;51.074;13.764;2023-03-01T16:38:22;3.50;99.90
43949;DHT22;29429;51.074;13.764;2023-03-01T16:40:51;3.50;99.90
43949;DHT22;29429;51.074;13.764;2023-03-01T16:43:18;3.40;99.90
43949;DHT22;29429;51.074;13.764;2023-03-01T16:45:45;3.40;99.90
43949;DHT22;29429;51.074;13.764;2023-03-01T16:48:13;3.40;99.90
43949;DHT22;29429;51.074;13.764;2023-03-01T16:50:40;3.40;99.90
43949;DHT22;29429;51.074;13.764;2023-03-01T16:53:08;3.30;99.90
43949;DHT22;29429;51.074;13.764;2023-03-01T16:55:35;3.20;99.90
43949;DHT22;29429;51.074;13.764;2023-03-01T16:58:02;3.20;99.90
43949;DHT22;29429;51.074;13.764;2023-03-01T17:00:30;3.10;99.90
43949;DHT22;29429;51.074;13.764;2023-03-01T17:05:25;3.00;99.90
43949;DHT22;29429;51.074;13.764;2023-03-01T17:07:52;2.70;99.90
43949;DHT22;29429;51.074;13.764;2023-03-01T17:12:49;2.60;99.90
43949;DHT22;29429;51.074;13.764;2023-03-01T17:17:44;2.40;99.90
43949;DHT22;29429;51.074;13.764;2023-03-01T17:27:37;2.30;99.90
43949;DHT22;29429;51.074;13.764;2023-03-01T17:30:06;1.90;99.90
43949;DHT22;29429;51.074;13.764;2023-03-01T17:32:35;1.80;99.90
43949;DHT22;29429;51.074;13.764;2023-03-01T17:35:03;1.70;99.90
43949;DHT22;29429;51.074;13.764;2023-03-01T17:37:30;1.50;99.90
43949;DHT22;29429;51.074;13.764;2023-03-01T17:39:57;1.40;99.90
43949;DHT22;29429;51.074;13.764;2023-03-01T17:42:24;1.30;99.90
43949;DHT22;29429;51.074;13.764;2023-03-01T17:44:51;1.20;99.90
43949;DHT22;29429;51.074;13.764;2023-03-01T17:47:18;1.20;99.90
43949;DHT22;29429;51.074;13.764;2023-03-01T17:49:45;1.10;99.90
43949;DHT22;29429;51.074;13.764;2023-03-01T17:52:12;1.00;99.90
43949;DHT22;29429;51.074;13.764;2023-03-01T17:54:39;1.00;99.90
43949;DHT22;29429;51.074;13.764;2023-03-01T17:57:06;0.90;99.90
43949;DHT22;29429;51.074;13.764;2023-03-01T17:59:35;0.80;99.90
43949;DHT22;29429;51.074;13.764;2023-03-01T18:06:58;0.80;99.90
43949;DHT22;29429;51.074;13.764;2023-03-01T18:09:28;0.60;99.90
43949;DHT22;29429;51.074;13.764;2023-03-01T18:11:56;0.50;99.90
43949;DHT22;29429;51.074;13.764;2023-03-01T18:14:23;0.50;99.90
43949;DHT22;29429;51.074;13.764;2023-03-01T18:16:50;0.40;99.90
43949;DHT22;29429;51.074;13.764;2023-03-01T18:19:17;0.30;99.90
43949;DHT22;29429;51.074;13.764;2023-03-01T18:21:44;0.20;99.90
43949;DHT22;29429;51.074;13.764;2023-03-01T18:24:11;0.20;99.90
43949;DHT22;29429;51.074;13.764;2023-03-01T18:26:38;0.10;99.90
43949;DHT22;29429;51.074;13.764;2023-03-01T18:29:06;0.10;99.90
43949;DHT22;29429;51.074;13.764;2023-03-01T18:31:33;0.10;99.90
43949;DHT22;29429;51.074;13.764;2023-03-01T18:34:00;0.00;99.90
43949;DHT22;29429;51.074;13.764;2023-03-01T18:36:30;0.00;99.90
43949;DHT22;29429;51.074;13.764;2023-03-01T18:39:04;0.00;99.90
43949;DHT22;29429;51.074;13.764;2023-03-01T18:41:33;0.10;99.90